sensor_id;sensor_type;location;lat;lon;timestamp;temperature;humidity
38209;DHT22;24016;52.102;11.584;2022-11-20T00:01:46;-2.80;99.90
38209;DHT22;24016;52.102;11.584;2022-11-20T00:04:12;-2.70;99.90
38209;DHT22;24016;52.102;11.584;2022-11-20T00:06:38;-2.70;99.90
38209;DHT22;24016;52.102;11.584;2022-11-20T00:09:04;-2.60;99.90
38209;DHT22;24016;52.102;11.584;2022-11-20T00:11:31;-2.60;99.90
38209;DHT22;24016;52.102;11.584;2022-11-20T00:13:59;-2.60;99.90
38209;DHT22;24016;52.102;11.584;2022-11-20T00:16:25;-2.60;99.90
38209;DHT22;24016;52.102;11.584;2022-11-20T00:18:52;-2.50;99.90
38209;DHT22;24016;52.102;11.584;2022-11-20T00:21:20;-2.50;99.90
38209;DHT22;24016;52.102;11.584;2022-11-20T00:23:46;-2.50;99.90
38209;DHT22;24016;52.102;11.584;2022-11-20T00:26:16;-2.40;99.90
38209;DHT22;24016;52.102;11.584;2022-11-20T00:28:43;-2.40;99.90
38209;DHT22;24016;52.102;11.584;2022-11-20T00:31:14;-2.40;99.90
38209;DHT22;24016;52.102;11.584;2022-11-20T00:33:41;-2.40;99.90
38209;DHT22;24016;52.102;11.584;2022-11-20T00:36:09;-2.40;99.90
38209;DHT22;24016;52.102;11.584;2022-11-20T00:38:35;-2.40;99.90
38209;DHT22;24016;52.102;11.584;2022-11-20T00:41:04;-2.30;99.90
38209;DHT22;24016;52.102;11.584;2022-11-20T00:43:30;-2.30;99.90
38209;DHT22;24016;52.102;11.584;2022-11-20T00:45:59;-2.30;99.90
38209;DHT22;24016;52.102;11.584;2022-11-20T00:48:25;-2.30;99.90
38209;DHT22;24016;52.102;11.584;2022-11-20T00:50:52;-2.20;99.90
38209;DHT22;24016;52.102;11.584;2022-11-20T00:53:18;-2.20;99.90
38209;DHT22;24016;52.102;11.584;2022-11-20T00:55:55;-2.20;99.90
38209;DHT22;24016;52.102;11.584;2022-11-20T00:58:22;-2.20;99.90
38209;DHT22;24016;52.102;11.584;2022-11-20T01:00:47;-2.20;99.90
38209;DHT22;24016;52.102;11.584;2022-11-20T01:03:15;-2.20;99.90
38209;DHT22;24016;52.102;11.584;2022-11-20T01:05:41;-2.30;99.90
38209;DHT22;24016;52.102;11.584;2022-11-20T01:08:06;-2.20;99.90
38209;DHT22;24016;52.102;11.584;2022-11-20T01:10:32;-2.30;99.90
38209;DHT22;24016;52.102;11.584;2022-11-20T01:12:57;-2.20;99.90
38209;DHT22;24016;52.102;11.584;2022-11-20T01:15:42;-2.30;99.90
38209;DHT22;24016;52.102;11.584;2022-11-20T01:18:07;-2.30;99.90
38209;DHT22;24016;52.102;11.584;2022-11-20T01:20:36;-2.30;99.90
38209;DHT22;24016;52.102;11.584;2022-11-20T01:23:03;-2.30;99.90
38209;DHT22;24016;52.102;11.584;2022-11-20T01:25:29;-2.30;99.90
38209;DHT22;24016;52.102;11.584;2022-11-20T01:27:55;-2.30;99.90
38209;DHT22;24016;52.102;11.584;2022-11-20T01:30:20;-2.30;99.90
38209;DHT22;24016;52.102;11.584;2022-11-20T01:32:46;-2.30;99.90
38209;DHT22;24016;52.102;11.584;2022-11-20T01:35:11;-2.30;99.90
38209;DHT22;24016;52.102;11.584;2022-11-20T01:37:37;-2.30;99.90
38209;DHT22;24016;52.102;11.584;2022-11-20T01:40:03;-2.30;99.90
38209;DHT22;24016;52.102;11.584;2022-11-20T01:42:29;-2.30;99.90
38209;DHT22;24016;52.102;11.584;2022-11-20T01:46:33;-2.30;99.90
38209;DHT22;24016;52.102;11.584;2022-11-20T01:48:37;-2.30;99.90
38209;DHT22;24016;52.102;11.584;2022-11-20T01:51:05;-2.30;99.90
38209;DHT22;24016;52.102;11.584;2022-11-20T01:53:34;-2.30;99.90
38209;DHT22;24016;52.102;11.584;2022-11-20T01:56:03;-2.30;99.90
38209;DHT22;24016;52.102;11.584;2022-11-20T01:58:34;-2.20;99.90
38209;DHT22;24016;52.102;11.584;2022-11-20T02:01:00;-2.20;99.90
38209;DHT22;24016;52.102;11.584;2022-11-20T02:03:26;-2.20;99.90
38209;DHT22;24016;52.102;11.584;2022-11-20T02:08:38;-2.30;99.90
38209;DHT22;24016;52.102;11.584;2022-11-20T02:11:04;-2.20;99.90
38209;DHT22;24016;52.102;11.584;2022-11-20T02:13:30;-2.20;99.90
38209;DHT22;24016;52.102;11.584;2022-11-20T02:16:18;-2.20;99.90
38209;DHT22;24016;52.102;11.584;2022-11-20T02:18:45;-2.20;99.90
38209;DHT22;24016;52.102;11.584;2022-11-20T02:21:58;-2.20;99.90
38209;DHT22;24016;52.102;11.584;2022-11-20T02:26:46;-2.10;99.90
38209;DHT22;24016;52.102;11.584;2022-11-20T02:29:21;-2.00;99.90
38209;DHT22;24016;52.102;11.584;2022-11-20T02:31:47;-2.00;99.90
38209;DHT22;24016;52.102;11.584;2022-11-20T02:34:13;-1.90;99.90
38209;DHT22;24016;52.102;11.584;2022-11-20T02:36:41;-1.90;99.90
38209;DHT22;24016;52.102;11.584;2022-11-20T02:39:08;-1.90;99.90
38209;DHT22;24016;52.102;11.584;2022-11-20T02:41:36;-1.80;99.90
38209;DHT22;24016;52.102;11.584;2022-11-20T02:44:03;-1.80;99.90
38209;DHT22;24016;52.102;11.584;2022-11-20T02:46:30;-1.80;99.90
38209;DHT22;24016;52.102;11.584;2022-11-20T02:48:56;-1.80;99.90
38209;DHT22;24016;52.102;11.584;2022-11-20T02:51:22;-1.80;99.90
38209;DHT22;24016;52.102;11.584;2022-11-20T02:53:48;-1.80;99.90
38209;DHT22;24016;52.102;11.584;2022-11-20T02:56:14;-1.80;99.90
38209;DHT22;24016;52.102;11.584;2022-11-20T02:58:39;-1.80;99.90
38209;DHT22;24016;52.102;11.584;2022-11-20T03:01:05;-1.80;99.90
38209;DHT22;24016;52.102;11.584;2022-11-20T03:03:30;-1.90;99.90
38209;DHT22;24016;52.102;11.584;2022-11-20T03:05:58;-1.90;99.90
38209;DHT22;24016;52.102;11.584;2022-11-20T03:08:24;-1.90;99.90
38209;DHT22;24016;52.102;11.584;2022-11-20T03:10:49;-1.90;99.90
38209;DHT22;24016;52.102;11.584;2022-11-20T03:13:15;-1.90;99.90
38209;DHT22;24016;52.102;11.584;2022-11-20T03:15:40;-2.00;99.90
38209;DHT22;24016;52.102;11.584;2022-11-20T03:18:06;-2.10;99.90
38209;DHT22;24016;52.102;11.584;2022-11-20T03:20:33;-2.20;99.90
38209;DHT22;24016;52.102;11.584;2022-11-20T03:22:59;-2.20;99.90
38209;DHT22;24016;52.102;11.584;2022-11-20T03:25:25;-2.30;99.90
38209;DHT22;24016;52.102;11.584;2022-11-20T03:27:50;-2.40;99.90
38209;DHT22;24016;52.102;11.584;2022-11-20T03:30:16;-2.50;99.90
38209;DHT22;24016;52.102;11.584;2022-11-20T03:32:42;-2.60;99.90
38209;DHT22;24016;52.102;11.584;2022-11-20T03:35:07;-2.60;99.90
38209;DHT22;24016;52.102;11.584;2022-11-20T03:37:33;-2.60;99.90
38209;DHT22;24016;52.102;11.584;2022-11-20T03:39:59;-2.70;99.90
38209;DHT22;24016;52.102;11.584;2022-11-20T03:42:24;-2.80;99.90
38209;DHT22;24016;52.102;11.584;2022-11-20T03:45:09;-2.80;99.90
38209;DHT22;24016;52.102;11.584;2022-11-20T03:47:35;-2.90;99.90
38209;DHT22;24016;52.102;11.584;2022-11-20T03:50:00;-2.90;99.90
38209;DHT22;24016;52.102;11.584;2022-11-20T03:52:26;-3.00;99.90
38209;DHT22;24016;52.102;11.584;2022-11-20T03:54:51;-3.10;99.90
38209;DHT22;24016;52.102;11.584;2022-11-20T03:57:17;-3.10;99.90
38209;DHT22;24016;52.102;11.584;2022-11-20T03:59:42;-3.20;99.90
38209;DHT22;24016;52.102;11.584;2022-11-20T04:02:08;-3.20;99.90
38209;DHT22;24016;52.102;11.584;2022-11-20T04:04:33;-3.20;99.90
38209;DHT22;24016;52.102;11.584;2022-11-20T04:06:59;-3.20;99.90
38209;DHT22;24016;52.102;11.584;2022-11-20T04:09:25;-3.20;99.90
38209;DHT22;24016;52.102;11.584;2022-11-20T04:11:50;-3.30;99.90
38209;DHT22;24016;52.102;11.584;2022-11-20T04:14:16;-3.30;99.90
38209;DHT22;24016;52.102;11.584;2022-11-20T04:16:42;-3.30;99.90
38209;DHT22;24016;52.102;11.584;2022-11-20T04:19:15;-3.40;99.90
38209;DHT22;24016;52.102;11.584;2022-11-20T04:21:42;-3.40;99.90
38209;DHT22;24016;52.102;11.584;2022-11-20T04:24:08;-3.40;99.90
38209;DHT22;24016;52.102;11.584;2022-11-20T04:26:35;-3.40;99.90
38209;DHT22;24016;52.102;11.584;2022-11-20T04:29:01;-3.40;99.90
38209;DHT22;24016;52.102;11.584;2022-11-20T04:31:30;-3.40;99.90
38209;DHT22;24016;52.102;11.584;2022-11-20T04:33:59;-3.40;99.90
38209;DHT22;24016;52.102;11.584;2022-11-20T04:36:26;-3.40;99.90
38209;DHT22;24016;52.102;11.584;2022-11-20T04:38:57;-3.40;99.90
38209;DHT22;24016;52.102;11.584;2022-11-20T04:41:26;-3.40;99.90
38209;DHT22;24016;52.102;11.584;2022-11-20T04:43:53;-3.40;99.90
38209;DHT22;24016;52.102;11.584;2022-11-20T04:46:25;-3.30;99.90
38209;DHT22;24016;52.102;11.584;2022-11-20T04:48:50;-3.30;99.90
38209;DHT22;24016;52.102;11.584;2022-11-20T04:51:16;-3.20;99.90
38209;DHT22;24016;52.102;11.584;2022-11-20T04:53:42;-3.20;99.90
38209;DHT22;24016;52.102;11.584;2022-11-20T04:56:10;-3.10;99.90
38209;DHT22;24016;52.102;11.584;2022-11-20T04:58:36;-3.10;99.90
38209;DHT22;24016;52.102;11.584;2022-11-20T05:01:13;-3.00;99.90
38209;DHT22;24016;52.102;11.584;2022-11-20T05:03:43;-3.00;99.90
38209;DHT22;24016;52.102;11.584;2022-11-20T05:06:11;-3.00;99.90
38209;DHT22;24016;52.102;11.584;2022-11-20T05:08:37;-2.90;99.90
38209;DHT22;24016;52.102;11.584;2022-11-20T05:11:07;-2.90;99.90
38209;DHT22;24016;52.102;11.584;2022-11-20T05:13:33;-2.90;99.90
38209;DHT22;24016;52.102;11.584;2022-11-20T05:16:04;-3.00;99.90
38209;DHT22;24016;52.102;11.584;2022-11-20T05:18:30;-3.00;99.90
38209;DHT22;24016;52.102;11.584;2022-11-20T05:20:58;-2.90;99.90
38209;DHT22;24016;52.102;11.584;2022-11-20T05:23:24;-2.90;99.90
38209;DHT22;24016;52.102;11.584;2022-11-20T05:25:54;-3.00;99.90
38209;DHT22;24016;52.102;11.584;2022-11-20T05:28:21;-3.00;99.90
38209;DHT22;24016;52.102;11.584;2022-11-20T05:30:47;-3.00;99.90
38209;DHT22;24016;52.102;11.584;2022-11-20T05:33:12;-3.10;99.90
38209;DHT22;24016;52.102;11.584;2022-11-20T05:35:38;-3.10;99.90
38209;DHT22;24016;52.102;11.584;2022-11-20T05:38:03;-3.10;99.90
38209;DHT22;24016;52.102;11.584;2022-11-20T05:40:29;-3.20;99.90
38209;DHT22;24016;52.102;11.584;2022-11-20T05:42:55;-3.20;99.90
38209;DHT22;24016;52.102;11.584;2022-11-20T05:45:20;-3.30;99.90
38209;DHT22;24016;52.102;11.584;2022-11-20T05:47:46;-3.30;99.90
38209;DHT22;24016;52.102;11.584;2022-11-20T05:50:12;-3.30;99.90
38209;DHT22;24016;52.102;11.584;2022-11-20T05:52:37;-3.40;99.90
38209;DHT22;24016;52.102;11.584;2022-11-20T05:55:03;-3.40;99.90
38209;DHT22;24016;52.102;11.584;2022-11-20T05:57:29;-3.40;99.90
38209;DHT22;24016;52.102;11.584;2022-11-20T05:59:56;-3.50;99.90
38209;DHT22;24016;52.102;11.584;2022-11-20T06:02:21;-3.50;99.90
38209;DHT22;24016;52.102;11.584;2022-11-20T06:04:47;-3.60;99.90
38209;DHT22;24016;52.102;11.584;2022-11-20T06:07:13;-3.70;99.90
38209;DHT22;24016;52.102;11.584;2022-11-20T06:09:39;-3.70;99.90
38209;DHT22;24016;52.102;11.584;2022-11-20T06:12:05;-3.80;99.90
38209;DHT22;24016;52.102;11.584;2022-11-20T06:14:30;-3.80;99.90
38209;DHT22;24016;52.102;11.584;2022-11-20T06:16:56;-3.80;99.90
38209;DHT22;24016;52.102;11.584;2022-11-20T06:19:22;-3.80;99.90
38209;DHT22;24016;52.102;11.584;2022-11-20T06:21:48;-3.80;99.90
38209;DHT22;24016;52.102;11.584;2022-11-20T06:24:15;-3.80;99.90
38209;DHT22;24016;52.102;11.584;2022-11-20T06:26:40;-3.80;99.90
38209;DHT22;24016;52.102;11.584;2022-11-20T06:29:06;-3.80;99.90
38209;DHT22;24016;52.102;11.584;2022-11-20T06:31:31;-3.80;99.90
38209;DHT22;24016;52.102;11.584;2022-11-20T06:34:00;-3.80;99.90
38209;DHT22;24016;52.102;11.584;2022-11-20T06:36:26;-3.90;99.90
38209;DHT22;24016;52.102;11.584;2022-11-20T06:38:52;-3.90;99.90
38209;DHT22;24016;52.102;11.584;2022-11-20T06:41:20;-3.90;99.90
38209;DHT22;24016;52.102;11.584;2022-11-20T06:43:46;-3.90;99.90
38209;DHT22;24016;52.102;11.584;2022-11-20T06:46:13;-3.90;99.90
38209;DHT22;24016;52.102;11.584;2022-11-20T06:48:40;-3.90;99.90
38209;DHT22;24016;52.102;11.584;2022-11-20T06:51:07;-3.90;99.90
38209;DHT22;24016;52.102;11.584;2022-11-20T06:53:33;-3.90;99.90
38209;DHT22;24016;52.102;11.584;2022-11-20T06:55:59;-3.90;99.90
38209;DHT22;24016;52.102;11.584;2022-11-20T06:58:27;-4.00;99.90
38209;DHT22;24016;52.102;11.584;2022-11-20T07:00:53;-4.00;99.90
38209;DHT22;24016;52.102;11.584;2022-11-20T07:03:19;-4.00;99.90
38209;DHT22;24016;52.102;11.584;2022-11-20T07:05:45;-4.10;99.90
38209;DHT22;24016;52.102;11.584;2022-11-20T07:08:11;-4.00;99.90
38209;DHT22;24016;52.102;11.584;2022-11-20T07:10:37;-4.10;99.90
38209;DHT22;24016;52.102;11.584;2022-11-20T07:13:02;-4.10;99.90
38209;DHT22;24016;52.102;11.584;2022-11-20T07:15:28;-4.10;99.90
38209;DHT22;24016;52.102;11.584;2022-11-20T07:17:54;-4.20;99.90
38209;DHT22;24016;52.102;11.584;2022-11-20T07:20:20;-4.10;99.90
38209;DHT22;24016;52.102;11.584;2022-11-20T07:22:45;-4.10;99.90
38209;DHT22;24016;52.102;11.584;2022-11-20T07:25:11;-4.10;99.90
38209;DHT22;24016;52.102;11.584;2022-11-20T07:27:36;-4.00;99.90
38209;DHT22;24016;52.102;11.584;2022-11-20T07:30:03;-3.90;99.90
38209;DHT22;24016;52.102;11.584;2022-11-20T07:32:29;-3.90;99.90
38209;DHT22;24016;52.102;11.584;2022-11-20T07:34:54;-3.80;99.90
38209;DHT22;24016;52.102;11.584;2022-11-20T07:37:20;-3.80;99.90
38209;DHT22;24016;52.102;11.584;2022-11-20T07:39:46;-3.80;99.90
38209;DHT22;24016;52.102;11.584;2022-11-20T07:42:11;-3.90;99.90
38209;DHT22;24016;52.102;11.584;2022-11-20T07:44:38;-3.90;99.90
38209;DHT22;24016;52.102;11.584;2022-11-20T07:47:03;-3.90;99.90
38209;DHT22;24016;52.102;11.584;2022-11-20T07:49:29;-3.80;99.90
38209;DHT22;24016;52.102;11.584;2022-11-20T07:51:55;-3.70;99.90
38209;DHT22;24016;52.102;11.584;2022-11-20T07:54:21;-3.50;99.90
38209;DHT22;24016;52.102;11.584;2022-11-20T07:56:48;-3.20;99.90
38209;DHT22;24016;52.102;11.584;2022-11-20T07:59:14;-2.90;99.90
38209;DHT22;24016;52.102;11.584;2022-11-20T08:01:41;-2.70;99.90
38209;DHT22;24016;52.102;11.584;2022-11-20T08:04:06;-2.40;99.90
38209;DHT22;24016;52.102;11.584;2022-11-20T08:06:32;-2.20;99.90
38209;DHT22;24016;52.102;11.584;2022-11-20T08:08:58;-2.10;99.90
38209;DHT22;24016;52.102;11.584;2022-11-20T08:11:23;-1.90;99.90
38209;DHT22;24016;52.102;11.584;2022-11-20T08:14:08;-1.80;99.90
38209;DHT22;24016;52.102;11.584;2022-11-20T08:16:44;-1.60;99.90
38209;DHT22;24016;52.102;11.584;2022-11-20T08:19:10;-1.60;99.90
38209;DHT22;24016;52.102;11.584;2022-11-20T08:21:36;-1.60;99.90
38209;DHT22;24016;52.102;11.584;2022-11-20T08:24:02;-1.50;99.90
38209;DHT22;24016;52.102;11.584;2022-11-20T08:26:27;-1.60;99.90
38209;DHT22;24016;52.102;11.584;2022-11-20T08:28:54;-1.50;99.90
38209;DHT22;24016;52.102;11.584;2022-11-20T08:31:20;-1.40;99.90
38209;DHT22;24016;52.102;11.584;2022-11-20T08:33:46;-1.30;99.90
38209;DHT22;24016;52.102;11.584;2022-11-20T08:36:12;-1.20;99.90
38209;DHT22;24016;52.102;11.584;2022-11-20T08:38:38;-1.10;99.90
38209;DHT22;24016;52.102;11.584;2022-11-20T08:41:04;-1.00;99.90
38209;DHT22;24016;52.102;11.584;2022-11-20T08:43:52;-0.90;99.90
38209;DHT22;24016;52.102;11.584;2022-11-20T08:46:19;-0.90;99.90
38209;DHT22;24016;52.102;11.584;2022-11-20T08:48:45;-0.90;99.90
38209;DHT22;24016;52.102;11.584;2022-11-20T08:51:11;-1.00;99.90
38209;DHT22;24016;52.102;11.584;2022-11-20T08:53:38;-1.00;99.90
38209;DHT22;24016;52.102;11.584;2022-11-20T08:56:04;-1.00;99.90
38209;DHT22;24016;52.102;11.584;2022-11-20T08:58:30;-1.00;99.90
38209;DHT22;24016;52.102;11.584;2022-11-20T09:00:56;-0.90;99.90
38209;DHT22;24016;52.102;11.584;2022-11-20T09:03:21;-0.80;99.90
38209;DHT22;24016;52.102;11.584;2022-11-20T09:05:47;-0.70;99.90
38209;DHT22;24016;52.102;11.584;2022-11-20T09:08:13;-0.60;99.90
38209;DHT22;24016;52.102;11.584;2022-11-20T09:10:38;-0.40;99.90
38209;DHT22;24016;52.102;11.584;2022-11-20T09:13:05;-0.40;99.90
38209;DHT22;24016;52.102;11.584;2022-11-20T09:15:31;-0.40;99.90
38209;DHT22;24016;52.102;11.584;2022-11-20T09:18:00;-0.30;99.90
38209;DHT22;24016;52.102;11.584;2022-11-20T09:20:27;-0.30;99.90
38209;DHT22;24016;52.102;11.584;2022-11-20T09:22:54;-0.30;99.90
38209;DHT22;24016;52.102;11.584;2022-11-20T09:25:20;-0.20;99.90
38209;DHT22;24016;52.102;11.584;2022-11-20T09:27:46;-0.20;99.90
38209;DHT22;24016;52.102;11.584;2022-11-20T09:30:13;-0.30;99.90
38209;DHT22;24016;52.102;11.584;2022-11-20T09:32:39;-0.30;99.90
38209;DHT22;24016;52.102;11.584;2022-11-20T09:35:05;-0.20;99.90
38209;DHT22;24016;52.102;11.584;2022-11-20T09:37:30;-0.20;99.90
38209;DHT22;24016;52.102;11.584;2022-11-20T09:39:56;-0.20;99.90
38209;DHT22;24016;52.102;11.584;2022-11-20T09:42:46;-0.20;99.90
38209;DHT22;24016;52.102;11.584;2022-11-20T09:46:05;-0.10;99.90
38209;DHT22;24016;52.102;11.584;2022-11-20T09:56:38;-0.20;99.90
38209;DHT22;24016;52.102;11.584;2022-11-20T09:59:08;-0.30;99.90
38209;DHT22;24016;52.102;11.584;2022-11-20T10:01:39;-0.30;99.90
38209;DHT22;24016;52.102;11.584;2022-11-20T10:04:20;-0.30;99.90
38209;DHT22;24016;52.102;11.584;2022-11-20T10:07:07;-0.30;99.90
38209;DHT22;24016;52.102;11.584;2022-11-20T10:09:40;-0.40;99.90
38209;DHT22;24016;52.102;11.584;2022-11-20T10:12:33;-0.30;99.90
38209;DHT22;24016;52.102;11.584;2022-11-20T10:15:45;-0.40;99.90
38209;DHT22;24016;52.102;11.584;2022-11-20T10:19:00;-0.40;99.90
38209;DHT22;24016;52.102;11.584;2022-11-20T10:29:18;-0.30;99.90
38209;DHT22;24016;52.102;11.584;2022-11-20T10:31:53;-0.30;99.90
38209;DHT22;24016;52.102;11.584;2022-11-20T10:34:48;-0.20;99.90
38209;DHT22;24016;52.102;11.584;2022-11-20T10:37:23;-0.20;99.90
38209;DHT22;24016;52.102;11.584;2022-11-20T10:40:00;-0.10;99.90
38209;DHT22;24016;52.102;11.584;2022-11-20T10:42:37;0.10;99.90
38209;DHT22;24016;52.102;11.584;2022-11-20T10:48:01;0.10;99.90
38209;DHT22;24016;52.102;11.584;2022-11-20T10:50:35;0.20;99.90
38209;DHT22;24016;52.102;11.584;2022-11-20T10:53:54;0.20;99.90
38209;DHT22;24016;52.102;11.584;2022-11-20T10:55:58;0.20;99.90
38209;DHT22;24016;52.102;11.584;2022-11-20T10:58:45;0.30;99.90
38209;DHT22;24016;52.102;11.584;2022-11-20T11:01:17;0.30;99.90
38209;DHT22;24016;52.102;11.584;2022-11-20T11:03:44;0.30;99.90
38209;DHT22;24016;52.102;11.584;2022-11-20T11:06:36;0.40;99.90
38209;DHT22;24016;52.102;11.584;2022-11-20T11:09:16;0.40;99.90
38209;DHT22;24016;52.102;11.584;2022-11-20T11:11:42;0.50;99.90
38209;DHT22;24016;52.102;11.584;2022-11-20T11:14:15;0.70;99.90
38209;DHT22;24016;52.102;11.584;2022-11-20T11:16:52;0.90;99.90
38209;DHT22;24016;52.102;11.584;2022-11-20T11:19:18;1.30;99.90
38209;DHT22;24016;52.102;11.584;2022-11-20T11:21:51;1.70;99.90
38209;DHT22;24016;52.102;11.584;2022-11-20T11:24:27;1.90;99.90
38209;DHT22;24016;52.102;11.584;2022-11-20T11:27:00;2.10;99.90
38209;DHT22;24016;52.102;11.584;2022-11-20T11:29:30;2.10;99.90
38209;DHT22;24016;52.102;11.584;2022-11-20T11:32:13;2.60;99.90
38209;DHT22;24016;52.102;11.584;2022-11-20T11:34:39;3.40;99.90
38209;DHT22;24016;52.102;11.584;2022-11-20T11:37:19;3.50;99.90
38209;DHT22;24016;52.102;11.584;2022-11-20T11:39:47;3.40;99.90
38209;DHT22;24016;52.102;11.584;2022-11-20T11:42:17;3.30;99.90
38209;DHT22;24016;52.102;11.584;2022-11-20T11:44:47;3.10;99.90
38209;DHT22;24016;52.102;11.584;2022-11-20T11:52:46;3.10;99.90
38209;DHT22;24016;52.102;11.584;2022-11-20T12:03:40;2.30;99.90
38209;DHT22;24016;52.102;11.584;2022-11-20T12:06:14;2.20;99.90
38209;DHT22;24016;52.102;11.584;2022-11-20T12:09:02;2.20;99.90
38209;DHT22;24016;52.102;11.584;2022-11-20T12:11:38;2.30;99.90
38209;DHT22;24016;52.102;11.584;2022-11-20T12:16:58;1.80;99.90
38209;DHT22;24016;52.102;11.584;2022-11-20T12:19:23;1.70;99.90
38209;DHT22;24016;52.102;11.584;2022-11-20T12:21:58;1.50;99.90
38209;DHT22;24016;52.102;11.584;2022-11-20T12:27:40;1.80;99.90
38209;DHT22;24016;52.102;11.584;2022-11-20T12:30:08;1.90;99.90
38209;DHT22;24016;52.102;11.584;2022-11-20T12:47:19;2.10;99.90
38209;DHT22;24016;52.102;11.584;2022-11-20T12:55:33;1.70;99.90
38209;DHT22;24016;52.102;11.584;2022-11-20T12:58:13;1.70;99.90
38209;DHT22;24016;52.102;11.584;2022-11-20T13:00:54;1.70;99.90
38209;DHT22;24016;52.102;11.584;2022-11-20T13:06:16;1.60;99.90
38209;DHT22;24016;52.102;11.584;2022-11-20T13:08:48;1.50;99.90
38209;DHT22;24016;52.102;11.584;2022-11-20T13:19:22;1.10;99.90
38209;DHT22;24016;52.102;11.584;2022-11-20T13:21:49;1.10;99.90
38209;DHT22;24016;52.102;11.584;2022-11-20T13:26:44;0.90;99.90
38209;DHT22;24016;52.102;11.584;2022-11-20T13:29:16;0.90;99.90
38209;DHT22;24016;52.102;11.584;2022-11-20T13:31:46;1.00;99.90
38209;DHT22;24016;52.102;11.584;2022-11-20T13:34:23;1.00;99.90
38209;DHT22;24016;52.102;11.584;2022-11-20T13:36:57;1.00;99.90
38209;DHT22;24016;52.102;11.584;2022-11-20T13:39:27;1.10;99.90
38209;DHT22;24016;52.102;11.584;2022-11-20T13:44:47;1.10;99.90
38209;DHT22;24016;52.102;11.584;2022-11-20T13:47:27;1.00;99.90
38209;DHT22;24016;52.102;11.584;2022-11-20T13:49:54;1.10;99.90
38209;DHT22;24016;52.102;11.584;2022-11-20T13:52:45;1.00;99.90
38209;DHT22;24016;52.102;11.584;2022-11-20T13:58:09;1.00;99.90
38209;DHT22;24016;52.102;11.584;2022-11-20T14:00:45;0.90;99.90
38209;DHT22;24016;52.102;11.584;2022-11-20T14:03:21;0.90;99.90
38209;DHT22;24016;52.102;11.584;2022-11-20T14:05:57;0.90;99.90
38209;DHT22;24016;52.102;11.584;2022-11-20T14:08:42;0.90;99.90
38209;DHT22;24016;52.102;11.584;2022-11-20T14:11:18;0.90;99.90
38209;DHT22;24016;52.102;11.584;2022-11-20T14:13:59;0.90;99.90
38209;DHT22;24016;52.102;11.584;2022-11-20T14:16:28;1.00;99.90
38209;DHT22;24016;52.102;11.584;2022-11-20T14:18:55;0.90;99.90
38209;DHT22;24016;52.102;11.584;2022-11-20T14:21:30;0.90;99.90
38209;DHT22;24016;52.102;11.584;2022-11-20T14:24:06;0.90;99.90
38209;DHT22;24016;52.102;11.584;2022-11-20T14:26:32;0.90;99.90
38209;DHT22;24016;52.102;11.584;2022-11-20T14:28:59;0.90;99.90
38209;DHT22;24016;52.102;11.584;2022-11-20T14:31:26;0.90;99.90
38209;DHT22;24016;52.102;11.584;2022-11-20T14:33:53;0.90;99.90
38209;DHT22;24016;52.102;11.584;2022-11-20T14:36:21;0.90;99.90
38209;DHT22;24016;52.102;11.584;2022-11-20T14:38:47;0.90;99.90
38209;DHT22;24016;52.102;11.584;2022-11-20T14:41:23;0.90;99.90
38209;DHT22;24016;52.102;11.584;2022-11-20T14:43:55;0.90;99.90
38209;DHT22;24016;52.102;11.584;2022-11-20T14:46:21;0.80;99.90
38209;DHT22;24016;52.102;11.584;2022-11-20T14:48:50;0.80;99.90
38209;DHT22;24016;52.102;11.584;2022-11-20T14:54:17;0.70;99.90
38209;DHT22;24016;52.102;11.584;2022-11-20T14:57:03;0.60;99.90
38209;DHT22;24016;52.102;11.584;2022-11-20T14:59:31;0.50;99.90
38209;DHT22;24016;52.102;11.584;2022-11-20T15:02:01;0.50;99.90
38209;DHT22;24016;52.102;11.584;2022-11-20T15:04:27;0.40;99.90
38209;DHT22;24016;52.102;11.584;2022-11-20T15:06:55;0.30;99.90
38209;DHT22;24016;52.102;11.584;2022-11-20T15:09:21;0.20;99.90
38209;DHT22;24016;52.102;11.584;2022-11-20T15:12:03;0.20;99.90
38209;DHT22;24016;52.102;11.584;2022-11-20T15:14:30;0.00;99.90
38209;DHT22;24016;52.102;11.584;2022-11-20T15:16:56;-0.10;99.90
38209;DHT22;24016;52.102;11.584;2022-11-20T15:19:26;-0.20;99.90
38209;DHT22;24016;52.102;11.584;2022-11-20T15:21:52;-0.30;99.90
38209;DHT22;24016;52.102;11.584;2022-11-20T15:24:18;-0.40;99.90
38209;DHT22;24016;52.102;11.584;2022-11-20T15:26:47;-0.40;99.90
38209;DHT22;24016;52.102;11.584;2022-11-20T15:29:15;-0.60;99.90
38209;DHT22;24016;52.102;11.584;2022-11-20T15:31:44;-0.60;99.90
38209;DHT22;24016;52.102;11.584;2022-11-20T15:34:15;-0.70;99.90
38209;DHT22;24016;52.102;11.584;2022-11-20T15:36:44;-0.80;99.90
38209;DHT22;24016;52.102;11.584;2022-11-20T15:39:09;-1.00;99.90
38209;DHT22;24016;52.102;11.584;2022-11-20T15:41:37;-1.00;99.90
38209;DHT22;24016;52.102;11.584;2022-11-20T15:44:03;-1.10;99.90
38209;DHT22;24016;52.102;11.584;2022-11-20T15:46:31;-1.20;99.90
38209;DHT22;24016;52.102;11.584;2022-11-20T15:49:02;-1.30;99.90
38209;DHT22;24016;52.102;11.584;2022-11-20T15:51:34;-1.30;99.90
38209;DHT22;24016;52.102;11.584;2022-11-20T15:54:00;-1.40;99.90
38209;DHT22;24016;52.102;11.584;2022-11-20T15:56:26;-1.50;99.90
38209;DHT22;24016;52.102;11.584;2022-11-20T15:58:52;-1.50;99.90
38209;DHT22;24016;52.102;11.584;2022-11-20T16:01:20;-1.60;99.90
38209;DHT22;24016;52.102;11.584;2022-11-20T16:03:46;-1.60;99.90
38209;DHT22;24016;52.102;11.584;2022-11-20T16:06:12;-1.60;99.90
38209;DHT22;24016;52.102;11.584;2022-11-20T16:08:38;-1.70;99.90
38209;DHT22;24016;52.102;11.584;2022-11-20T16:11:04;-1.80;99.90
38209;DHT22;24016;52.102;11.584;2022-11-20T16:13:31;-1.80;99.90
38209;DHT22;24016;52.102;11.584;2022-11-20T16:16:25;-1.80;99.90
38209;DHT22;24016;52.102;11.584;2022-11-20T16:18:53;-1.80;99.90
38209;DHT22;24016;52.102;11.584;2022-11-20T16:21:19;-1.80;99.90
38209;DHT22;24016;52.102;11.584;2022-11-20T16:23:45;-1.80;99.90
38209;DHT22;24016;52.102;11.584;2022-11-20T16:26:15;-1.90;99.90
38209;DHT22;24016;52.102;11.584;2022-11-20T16:28:42;-1.90;99.90
38209;DHT22;24016;52.102;11.584;2022-11-20T16:31:12;-1.90;99.90
38209;DHT22;24016;52.102;11.584;2022-11-20T16:33:53;-1.90;99.90
38209;DHT22;24016;52.102;11.584;2022-11-20T16:36:20;-2.00;99.90
38209;DHT22;24016;52.102;11.584;2022-11-20T16:38:51;-2.10;99.90
38209;DHT22;24016;52.102;11.584;2022-11-20T16:41:17;-2.20;99.90
38209;DHT22;24016;52.102;11.584;2022-11-20T16:43:47;-2.20;99.90
38209;DHT22;24016;52.102;11.584;2022-11-20T16:46:17;-2.30;99.90
38209;DHT22;24016;52.102;11.584;2022-11-20T16:48:43;-2.30;99.90
38209;DHT22;24016;52.102;11.584;2022-11-20T16:51:11;-2.20;99.90
38209;DHT22;24016;52.102;11.584;2022-11-20T16:53:37;-2.30;99.90
38209;DHT22;24016;52.102;11.584;2022-11-20T16:56:14;-2.30;99.90
38209;DHT22;24016;52.102;11.584;2022-11-20T16:58:47;-2.50;99.90
38209;DHT22;24016;52.102;11.584;2022-11-20T17:01:18;-2.50;99.90